Sherman, Nebraska
Current Conditions -  °F | °C
As of 2:15 PM on Saturday 25 Oct 2014 (Local Time) from KHDE Reporting Station
Clear Clear  
Wind Chill: 75°   Ceiling: Unl
Heat Index: 75°   Visibility: 10mi
Dew Point: 46°   Wind: 9mph
Humidity: 36%   Direction: 120°ESE
Pressure: 30.07"   Gusts: NA
Location:  40.3942°N, 99.1223°W
Report Text: KHDE 251915Z AUTO 12008KT 10SM CLR 24/08 A3007 RMK AO2 T02380078
Loading
Personal Weather Stations






























Interactive Weather Map
Tropical Storm Tracking
New forecast layout! Learn more

10-Day Weather Forecast

Advertisements
Track Severe Weather on mobile